Time;durP1;ratioP1;P1;durP2;ratioP2;P2;SDS_P1;SDS_P2;PMS_P1;PMS_P2;Temp;Humidity;BMP_temperature;BMP_pressure;BME280_temperature;BME280_humidity;BME280_pressure;Samples;Min_cycle;Max_cycle;Signal;HPM_P1;HPM_P2
2023/06/17 00:01:46;;;;;;;;;6.33;4.33;;;;;22.55;65.48;99900.22;146644;564;45020;-65
2023/06/17 00:04:43;;;;;;;;;3.00;3.00;;;;;22.48;66.12;99899.41;146641;592;45016;-66
2023/06/17 00:07:57;;;;;;;;;5.33;3.67;;;;;22.37;64.93;99885.44;146643;569;45020;-65
2023/06/17 00:10:58;;;;;;;;;7.67;6.67;;;;;22.41;65.84;99895.09;146640;627;46014;-67
2023/06/17 00:13:52;;;;;;;;;6.67;4.67;;;;;22.36;66.66;99892.47;146647;569;45010;-66
2023/06/17 00:16:53;;;;;;;;;7.33;6.67;;;;;22.33;66.37;99894.28;146639;637;46032;-67
2023/06/17 00:19:51;;;;;;;;;4.00;4.00;;;;;22.29;67.25;99895.22;146622;596;46021;-65
2023/06/17 00:22:55;;;;;;;;;4.67;4.00;;;;;22.24;67.08;99897.00;146620;569;46012;-65
2023/06/17 00:25:50;;;;;;;;;3.67;3.67;;;;;22.19;67.45;99889.16;146619;575;48014;-65
2023/06/17 00:28:45;;;;;;;;;6.33;5.33;;;;;22.14;67.76;99894.41;146620;563;46012;-66
2023/06/17 00:32:06;;;;;;;;;4.67;4.00;;;;;22.12;67.53;99897.97;146624;640;46010;-66
2023/06/17 00:35:11;;;;;;;;;5.67;4.33;;;;;22.09;68.42;99896.25;146621;572;46014;-65
2023/06/17 00:38:09;;;;;;;;;6.00;4.00;;;;;22.07;67.76;99890.09;146620;563;47020;-66
2023/06/17 00:41:04;;;;;;;;;4.00;4.00;;;;;22.07;67.40;99884.81;146617;648;46017;-66
2023/06/17 00:43:59;;;;;;;;;5.33;5.00;;;;;22.08;67.84;99886.56;146622;618;46020;-66
2023/06/17 00:46:57;;;;;;;;;5.33;4.00;;;;;22.08;67.36;99876.00;146619;573;46017;-65
2023/06/17 00:49:56;;;;;;;;;3.00;3.00;;;;;22.17;67.14;99887.41;146622;573;46020;-65
2023/06/17 00:52:55;;;;;;;;;5.67;5.67;;;;;22.22;66.82;99888.25;146619;581;46012;-66
2023/06/17 00:55:50;;;;;;;;;6.00;6.00;;;;;22.25;66.50;99881.16;146623;616;46021;-66
2023/06/17 00:58:44;;;;;;;;;7.67;6.00;;;;;22.28;66.54;99880.25;146615;571;46016;-65
2023/06/17 01:01:36;;;;;;;;;7.67;6.67;;;;;22.32;66.33;99887.25;146625;604;46010;-65
2023/06/17 01:04:28;;;;;;;;;7.00;6.00;;;;;22.33;66.13;99874.00;146621;598;46012;-64
2023/06/17 01:07:57;;;;;;;;;5.00;5.00;;;;;22.04;65.61;99821.47;146625;634;46010;-66
2023/06/17 01:11:27;;;;;;;;;4.00;4.00;;;;;22.21;65.11;99857.41;146618;580;46017;-67
2023/06/17 01:14:45;;;;;;;;;6.00;4.00;;;;;22.26;65.27;99864.41;146623;619;46010;-64
2023/06/17 01:17:54;;;;;;;;;3.33;3.33;;;;;22.25;66.17;99867.97;146621;583;46016;-64
2023/06/17 01:21:22;;;;;;;;;4.00;4.00;;;;;22.26;65.38;99874.09;146620;611;46020;-64
2023/06/17 01:24:21;;;;;;;;;4.67;3.00;;;;;22.27;65.83;99860.88;146620;582;46017;-66
2023/06/17 01:27:35;;;;;;;;;2.67;2.67;;;;;22.31;66.01;99867.03;146624;643;47010;-65
2023/06/17 01:30:54;;;;;;;;;;;;;;;;;;;;;
2023/06/17 01:34:15;;;;;;;;;4.00;3.00;;;;;22.26;65.85;99853.84;146621;596;46010;-64
2023/06/17 01:38:03;;;;;;;;;3.00;3.00;;;;;21.61;65.22;99740.09;146617;644;46016;-65
2023/06/17 01:41:32;;;;;;;;;5.00;5.00;;;;;22.26;65.17;99847.69;146625;576;46010;-67
2023/06/17 01:44:51;;;;;;;;;6.67;5.67;;;;;22.30;65.37;99849.41;146619;622;46034;-65
2023/06/17 01:48:04;;;;;;;;;4.67;4.67;;;;;22.06;65.93;99798.59;146624;571;46023;-65
2023/06/17 01:50:58;;;;;;;;;4.33;3.00;;;;;22.32;66.25;99847.63;146616;576;46916;-66
2023/06/17 01:54:04;;;;;;;;;5.33;4.00;;;;;22.30;65.55;99838.84;146624;622;46028;-65
2023/06/17 01:57:04;;;;;;;;;5.33;3.67;;;;;22.26;65.89;99842.41;146620;585;46012;-66
2023/06/17 02:00:18;;;;;;;;;5.00;5.00;;;;;22.20;66.35;99840.72;146622;589;46021;-66
2023/06/17 02:03:38;;;;;;;;;;;;;;;;;;;;;
2023/06/17 02:06:42;;;;;;;;;4.00;3.00;;;;;22.10;66.75;99826.69;146620;610;46020;-64
2023/06/17 02:09:36;;;;;;;;;4.00;2.00;;;;;22.11;66.50;99827.56;146620;639;46014;-64
2023/06/17 02:12:40;;;;;;;;;4.67;4.67;;;;;22.11;66.37;99823.16;146625;579;46010;-65
2023/06/17 02:15:44;;;;;;;;;4.33;4.33;;;;;22.15;66.34;99816.09;146618;583;46913;-65
2023/06/17 02:18:42;;;;;;;;;5.33;4.33;;;;;22.21;66.36;99809.91;146625;629;46010;-64
2023/06/17 02:21:55;;;;;;;;;6.00;5.33;;;;;22.24;65.79;99804.59;146616;575;46016;-64
2023/06/17 02:24:48;;;;;;;;;6.00;6.00;;;;;22.27;66.46;99796.63;146621;664;46011;-64
2023/06/17 02:27:43;;;;;;;;;7.00;5.33;;;;;22.29;66.32;99800.12;146613;587;47014;-64
2023/06/17 02:30:45;;;;;;;;;7.00;7.00;;;;;22.29;66.61;99785.16;146621;615;46020;-64
2023/06/17 02:33:44;;;;;;;;;5.67;5.67;;;;;22.29;66.39;99792.22;146619;579;46014;-64
2023/06/17 02:36:56;;;;;;;;;4.00;4.00;;;;;22.26;66.10;99790.47;146625;612;46025;-65
2023/06/17 02:40:02;;;;;;;;;5.67;4.00;;;;;22.28;66.46;99791.34;146617;614;46913;-65
2023/06/17 02:43:02;;;;;;;;;5.67;4.00;;;;;22.25;65.44;99783.47;146620;595;46020;-67
2023/06/17 02:45:59;;;;;;;;;5.67;3.00;;;;;22.24;65.29;99787.00;146618;567;47012;-66
2023/06/17 02:48:54;;;;;;;;;4.00;3.00;;;;;22.23;65.49;99789.63;146623;615;46010;-63
2023/06/17 02:52:13;;;;;;;;;;;;;;;;;;;;;
2023/06/17 02:55:18;;;;;;;;;4.33;3.33;;;;;22.11;66.03;99788.84;146618;613;47010;-62
2023/06/17 02:58:18;;;;;;;;;3.00;3.00;;;;;22.04;66.36;99800.34;146620;646;46012;-64
2023/06/17 03:01:27;;;;;;;;;4.00;3.67;;;;;21.99;66.66;99802.16;146625;625;46010;-65
2023/06/17 03:04:53;;;;;;;;;;;;;;;;;;;;;
2023/06/17 03:07:59;;;;;;;;;4.00;4.00;;;;;21.83;67.28;99819.03;146620;579;46021;-64
2023/06/17 03:11:02;;;;;;;;;4.00;4.00;;;;;21.73;67.64;99820.88;146617;615;46016;-63
2023/06/17 03:14:19;;;;;;;;;3.67;3.67;;;;;21.70;67.84;99820.03;146626;571;46010;-64
2023/06/17 03:17:25;;;;;;;;;3.67;3.67;;;;;21.67;68.40;99821.81;146617;635;47912;-64
2023/06/17 03:20:40;;;;;;;;;3.33;3.00;;;;;21.63;67.98;99825.37;146624;630;46020;-64
2023/06/17 03:23:33;;;;;;;;;4.00;4.00;;;;;21.63;68.61;99829.78;146619;629;46017;-64
2023/06/17 03:26:42;;;;;;;;;4.33;4.33;;;;;21.59;68.15;99830.69;146623;630;46010;-65
2023/06/17 03:29:49;;;;;;;;;;;;;;;;;;;;;
2023/06/17 03:32:48;;;;;;;;;3.33;2.33;;;;;21.57;68.58;99827.19;146624;661;46010;-65
2023/06/17 03:35:43;;;;;;;;;3.67;3.67;;;;;21.59;68.17;99828.06;146616;571;46016;-65
2023/06/17 03:38:48;;;;;;;;;;;;;;;;;;;;;
2023/06/17 03:41:50;;;;;;;;;6.00;4.67;;;;;21.71;67.42;99842.91;146621;605;46912;-65
2023/06/17 03:45:00;;;;;;;;;7.33;5.00;;;;;21.76;67.27;99843.75;146624;573;46020;-64
2023/06/17 03:47:54;;;;;;;;;3.67;3.67;;;;;21.80;67.69;99856.87;146621;577;46032;-65
2023/06/17 03:51:06;;;;;;;;;5.67;5.67;;;;;21.84;68.32;99847.19;146623;571;46021;-64
2023/06/17 03:54:00;;;;;;;;;6.67;6.67;;;;;21.84;68.50;99841.94;146619;659;46016;-65
2023/06/17 03:56:55;;;;;;;;;4.33;4.33;;;;;21.86;67.41;99848.03;146623;586;46020;-65
2023/06/17 03:59:57;;;;;;;;;5.00;4.67;;;;;20.58;67.26;99628.44;146619;636;46017;-64
2023/06/17 04:03:17;;;;;;;;;;;;;;;;;;;;;
2023/06/17 04:06:29;;;;;;;;;;;;;;;;;;;;;
2023/06/17 04:09:27;;;;;;;;;4.00;4.00;;;;;21.92;67.22;99848.84;146621;564;46020;-64
2023/06/17 04:12:25;;;;;;;;;5.33;5.00;;;;;21.98;67.24;99847.94;146619;602;46012;-64
2023/06/17 04:15:20;;;;;;;;;6.00;4.00;;;;;22.03;66.80;99843.50;146621;579;46020;-64
2023/06/17 04:18:24;;;;;;;;;3.33;3.33;;;;;22.07;66.38;99850.50;146620;638;46012;-65
2023/06/17 04:21:30;;;;;;;;;4.67;4.00;;;;;22.10;66.57;99852.22;146622;623;46021;-63
2023/06/17 04:24:34;;;;;;;;;6.00;4.00;;;;;22.10;66.61;99854.88;146620;670;46016;-63
2023/06/17 04:27:26;;;;;;;;;6.67;4.00;;;;;22.13;67.34;99858.34;146615;604;46020;-64
2023/06/17 04:30:33;;;;;;;;;7.00;6.67;;;;;22.19;67.04;99851.31;146620;625;46012;-64
2023/06/17 04:33:37;;;;;;;;;3.00;2.00;;;;;22.22;66.94;99856.56;146620;624;46020;-64
2023/06/17 04:36:41;;;;;;;;;4.00;4.00;;;;;22.25;67.50;99869.72;146619;564;47012;-65
2023/06/17 04:40:17;;;;;;;;;6.67;6.00;;;;;20.94;67.17;99643.13;146621;565;46010;-66
2023/06/17 04:43:16;;;;;;;;;4.00;4.00;;;;;22.19;68.63;99865.38;146616;597;46017;-65
2023/06/17 04:46:10;;;;;;;;;4.00;4.00;;;;;22.16;68.46;99864.50;146621;593;46020;-64
2023/06/17 04:49:10;;;;;;;;;5.00;3.33;;;;;22.14;69.39;99862.72;146620;567;46012;-64
2023/06/17 04:52:03;;;;;;;;;4.00;3.67;;;;;22.09;69.37;99876.88;146623;576;46010;-64
2023/06/17 04:55:18;;;;;;;;;8.33;6.00;;;;;22.03;69.77;99887.50;146617;586;46016;-64
2023/06/17 04:58:31;;;;;;;;;7.33;5.33;;;;;22.02;68.90;99907.72;146621;564;46010;-65
2023/06/17 05:01:41;;;;;;;;;;;;;;;;;;;;;
2023/06/17 05:04:42;;;;;;;;;7.33;7.00;;;;;22.07;68.44;99921.78;146624;577;46010;-66
2023/06/17 05:07:39;;;;;;;;;4.00;4.00;;;;;22.10;68.08;99920.88;146618;576;46017;-66
2023/06/17 05:10:48;;;;;;;;;7.00;6.00;;;;;22.12;68.17;99917.34;146619;576;46020;-66
2023/06/17 05:13:57;;;;;;;;;7.00;6.00;;;;;20.69;68.10;99669.62;146619;583;46016;-66
2023/06/17 05:17:07;;;;;;;;;7.67;6.67;;;;;22.10;69.23;99913.81;146623;641;46010;-65
2023/06/17 05:20:18;;;;;;;;;8.00;7.00;;;;;22.06;69.10;99909.47;146620;580;46015;-65
2023/06/17 05:23:18;;;;;;;;;10.33;7.00;;;;;22.04;70.25;99905.09;146620;585;46010;-66
2023/06/17 05:26:17;;;;;;;;;6.00;6.00;;;;;21.99;70.17;99905.09;146616;599;46913;-65
2023/06/17 05:29:23;;;;;;;;;8.00;7.00;;;;;19.28;70.35;99441.47;146624;672;46011;-65
2023/06/17 05:32:31;;;;;;;;;9.00;6.00;;;;;19.10;69.64;99417.91;146618;574;46016;-65
2023/06/17 05:35:37;;;;;;;;;;;;;;;;;;;;;
2023/06/17 05:38:36;;;;;;;;;8.67;6.67;;;;;21.98;69.54;99919.22;146619;572;47012;-65
2023/06/17 05:41:40;;;;;;;;;8.00;7.33;;;;;22.02;67.94;99926.19;146618;607;46022;-66
2023/06/17 05:44:36;;;;;;;;;6.33;6.00;;;;;22.02;69.61;99920.91;146619;571;46016;-65
2023/06/17 05:47:30;;;;;;;;;6.33;5.00;;;;;22.02;70.12;99928.84;146623;605;46010;-64
2023/06/17 05:50:28;;;;;;;;;7.67;6.67;;;;;21.98;70.01;99936.81;146620;570;46012;-66
2023/06/17 05:53:30;;;;;;;;;7.00;6.67;;;;;21.93;70.30;99950.03;146623;647;46010;-66
2023/06/17 05:56:32;;;;;;;;;3.00;3.00;;;;;21.98;69.80;99958.81;146618;570;47015;-65
2023/06/17 05:59:28;;;;;;;;;6.00;4.00;;;;;22.07;69.82;99953.44;146624;605;46010;-66
2023/06/17 06:02:34;;;;;;;;;5.67;4.00;;;;;22.17;69.81;99954.28;146617;570;47014;-65
2023/06/17 06:05:27;;;;;;;;;2.33;2.33;;;;;22.22;69.28;99965.69;146621;569;46014;-65
2023/06/17 06:08:25;;;;;;;;;5.67;5.67;;;;;22.26;69.33;99959.50;146619;649;46016;-65
2023/06/17 06:11:33;;;;;;;;;;;;;;;;;;;;;
2023/06/17 06:14:31;;;;;;;;;2.00;1.00;;;;;22.31;68.82;99970.91;146618;585;46016;-65
2023/06/17 06:17:27;;;;;;;;;7.00;5.00;;;;;22.37;69.38;99981.41;146622;604;46010;-65
2023/06/17 06:20:28;;;;;;;;;5.00;4.00;;;;;22.48;69.32;99983.06;146619;633;47017;-65
2023/06/17 06:23:32;;;;;;;;;7.00;5.33;;;;;22.57;69.27;99993.56;146622;581;46010;-65
2023/06/17 06:26:39;;;;;;;;;4.00;4.00;;;;;22.58;69.81;99996.16;146617;571;46016;-64
2023/06/17 06:29:40;;;;;;;;;4.33;4.33;;;;;22.60;71.18;99999.69;146623;637;47010;-65
2023/06/17 06:32:41;;;;;;;;;8.33;6.00;;;;;22.56;72.37;100005.91;146618;699;46016;-65
2023/06/17 06:35:34;;;;;;;;;5.00;4.67;;;;;22.48;73.50;100006.84;146622;569;46020;-64
2023/06/17 06:38:40;;;;;;;;;5.00;5.00;;;;;22.39;72.41;100004.28;146618;584;46014;-65
2023/06/17 06:42:01;;;;;;;;;6.33;5.33;;;;;22.32;73.33;100014.03;146621;713;46030;-65
2023/06/17 06:45:06;;;;;;;;;6.00;6.00;;;;;22.31;73.22;100025.50;146619;582;46016;-65
2023/06/17 06:48:15;;;;;;;;;7.33;6.67;;;;;22.36;73.64;100029.81;146619;591;46015;-65
2023/06/17 06:51:33;;;;;;;;;4.67;4.67;;;;;22.40;74.51;100029.78;146615;586;46916;-64
2023/06/17 06:54:28;;;;;;;;;5.67;4.67;;;;;22.37;79.06;100026.31;146622;613;46020;-66
2023/06/17 06:57:26;;;;;;;;;6.00;6.00;;;;;22.28;79.00;100026.38;146619;658;46016;-63
2023/06/17 07:00:24;;;;;;;;;4.00;3.00;;;;;22.22;78.53;100033.47;146622;579;46010;-65
2023/06/17 07:03:16;;;;;;;;;7.67;6.33;;;;;22.15;81.81;100037.91;146620;583;46013;-65
2023/06/17 07:06:19;;;;;;;;;6.00;6.00;;;;;22.04;81.80;100034.44;146622;582;46010;-66
2023/06/17 07:09:14;;;;;;;;;7.67;7.00;;;;;21.94;82.08;100040.69;146620;605;46012;-65
2023/06/17 07:12:16;;;;;;;;;7.67;6.33;;;;;21.82;82.95;100034.56;146623;604;46030;-65
2023/06/17 07:15:37;;;;;;;;;6.33;5.00;;;;;21.74;80.96;100039.00;146619;636;46012;-64
2023/06/17 07:18:41;;;;;;;;;6.00;5.00;;;;;21.75;81.06;100039.91;146623;564;46011;-64
2023/06/17 07:21:45;;;;;;;;;6.00;6.00;;;;;21.75;79.67;100039.91;146619;642;46913;-64
2023/06/17 07:24:46;;;;;;;;;4.00;3.33;;;;;21.74;81.79;100039.00;146623;615;46010;-64
2023/06/17 07:27:59;;;;;;;;;8.00;7.33;;;;;21.71;80.72;100031.09;146618;576;46016;-64
2023/06/17 07:31:17;;;;;;;;;7.00;6.67;;;;;20.51;79.64;99828.63;146618;569;48010;-65
2023/06/17 07:34:25;;;;;;;;;8.33;8.00;;;;;21.72;84.30;100040.78;146619;606;46914;-65
2023/06/17 07:37:26;;;;;;;;;9.00;8.00;;;;;21.66;83.93;100038.19;146623;624;46020;-65
2023/06/17 07:40:37;;;;;;;;;6.33;5.00;;;;;21.61;81.71;100038.19;146618;630;46017;-66
2023/06/17 07:43:38;;;;;;;;;4.67;4.00;;;;;21.55;82.75;100030.31;146623;565;46010;-66
2023/06/17 07:46:48;;;;;;;;;4.00;4.00;;;;;21.55;81.34;100037.34;146621;568;46012;-65
2023/06/17 07:49:44;;;;;;;;;3.00;3.00;;;;;21.54;81.34;100046.16;146623;663;46031;-65
2023/06/17 07:52:50;;;;;;;;;7.67;6.33;;;;;21.57;81.20;100051.41;146619;639;46913;-65
2023/06/17 07:55:45;;;;;;;;;5.00;3.33;;;;;21.60;80.99;100054.03;146620;583;47010;-65
2023/06/17 07:58:47;;;;;;;;;2.33;2.33;;;;;21.57;80.34;100052.28;146619;576;46014;-67
2023/06/17 08:01:50;;;;;;;;;2.00;2.00;;;;;21.52;80.84;100051.41;146624;672;46020;-67
2023/06/17 08:05:12;;;;;;;;;5.00;4.00;;;;;21.52;80.40;100048.78;146619;626;47016;-65
2023/06/17 08:08:12;;;;;;;;;4.00;4.00;;;;;21.56;81.63;100054.94;146622;642;46010;-65
2023/06/17 08:11:23;;;;;;;;;4.33;3.00;;;;;21.43;81.27;100015.44;146614;599;47013;-66
2023/06/17 08:14:43;;;;;;;;;4.33;4.00;;;;;21.74;81.96;100059.25;146624;586;46010;-66
2023/06/17 08:17:43;;;;;;;;;4.67;4.33;;;;;21.84;81.14;100055.69;146618;636;47015;-65
2023/06/17 08:20:58;;;;;;;;;3.00;3.00;;;;;21.94;80.83;100057.37;146619;605;46020;-65
2023/06/17 08:23:59;;;;;;;;;5.00;4.00;;;;;22.02;80.64;100055.56;146618;603;46915;-67
2023/06/17 08:27:04;;;;;;;;;5.33;4.00;;;;;22.09;79.93;100052.00;146624;625;46998;-66
2023/06/17 08:30:03;;;;;;;;;5.00;5.00;;;;;22.16;79.10;100055.53;146617;636;47012;-65
2023/06/17 08:33:10;;;;;;;;;6.33;4.00;;;;;22.20;78.80;100049.31;146619;570;46014;-66
2023/06/17 08:36:22;;;;;;;;;3.67;3.67;;;;;22.26;80.16;100059.84;146618;655;46016;-66
2023/06/17 08:39:26;;;;;;;;;2.33;2.33;;;;;22.30;79.84;100051.00;146621;597;46020;-66
2023/06/17 08:42:30;;;;;;;;;3.33;3.33;;;;;22.29;79.45;100049.25;146617;579;46916;-66
2023/06/17 08:45:27;;;;;;;;;5.00;4.33;;;;;22.37;79.24;100047.44;146620;614;46020;-65
2023/06/17 08:48:40;;;;;;;;;5.33;4.33;;;;;22.53;79.38;100045.56;146617;565;47014;-65
2023/06/17 08:51:36;;;;;;;;;2.00;2.00;;;;;22.62;79.57;100044.59;146623;640;47010;-65
2023/06/17 08:54:40;;;;;;;;;7.33;3.00;;;;;22.63;78.98;100042.84;146620;565;46015;-65
2023/06/17 08:57:44;;;;;;;;;3.33;3.00;;;;;22.65;79.21;100038.38;146623;572;46010;-64
2023/06/17 09:00:58;;;;;;;;;2.00;2.00;;;;;22.73;79.24;100034.78;146619;594;46015;-64
2023/06/17 09:04:17;;;;;;;;;3.00;2.00;;;;;21.34;77.82;99775.47;146621;672;46010;-66
2023/06/17 09:07:36;;;;;;;;;3.00;3.00;;;;;22.95;78.51;100034.63;146620;607;46016;-65
2023/06/17 09:10:32;;;;;;;;;3.33;3.33;;;;;23.12;79.00;100030.03;146623;565;47011;-65
2023/06/17 09:13:26;;;;;;;;;4.33;4.33;;;;;23.33;76.67;100020.94;146618;565;47012;-65
2023/06/17 09:16:49;;;;;;;;;5.00;5.00;;;;;23.56;75.77;100039.22;146617;601;48020;-65
2023/06/17 09:19:51;;;;;;;;;5.33;5.00;;;;;23.97;75.73;100024.56;146631;667;46016;-65
2023/06/17 09:23:17;;;;;;;;;4.00;4.00;;;;;21.88;71.24;99608.75;146637;584;45020;-65
2023/06/17 09:26:37;;;;;;;;;;;;;;;;;;;;;
2023/06/17 09:29:45;;;;;;;;;4.67;3.67;;;;;24.74;72.60;100026.87;146636;612;46010;-65
2023/06/17 09:33:04;;;;;;;;;5.00;5.00;;;;;22.79;69.58;99655.91;146633;613;45912;-65
2023/06/17 09:36:21;;;;;;;;;5.00;3.67;;;;;25.42;70.14;100028.22;146636;597;45020;-65
2023/06/17 09:39:20;;;;;;;;;5.00;4.33;;;;;25.74;65.56;100031.09;146633;629;45017;-65
2023/06/17 09:42:21;;;;;;;;;5.00;5.00;;;;;25.92;67.23;100039.56;146637;648;45028;-65
2023/06/17 09:45:24;;;;;;;;;3.00;3.00;;;;;26.12;67.70;100037.34;146637;639;45012;-65
2023/06/17 09:48:29;;;;;;;;;5.00;3.67;;;;;26.36;67.02;100041.22;146633;686;45021;-65
2023/06/17 09:51:27;;;;;;;;;5.00;5.00;;;;;26.55;65.63;100039.00;146633;592;45932;-66
2023/06/17 09:54:24;;;;;;;;;3.33;3.33;;;;;26.60;62.98;100029.09;146638;667;45010;-65
2023/06/17 09:57:18;;;;;;;;;2.00;2.00;;;;;26.52;64.27;100033.75;146636;570;46014;-66
2023/06/17 10:00:14;;;;;;;;;3.00;2.33;;;;;26.33;62.37;100035.97;146636;612;45029;-65
2023/06/17 10:03:07;;;;;;;;;4.33;4.33;;;;;25.86;59.76;100034.41;146634;577;45014;-66
2023/06/17 10:06:20;;;;;;;;;3.00;3.00;;;;;25.24;63.97;100037.47;146638;584;45020;-65
2023/06/17 10:09:13;;;;;;;;;5.00;4.00;;;;;25.01;66.92;100035.19;146633;576;46012;-65
2023/06/17 10:12:20;;;;;;;;;3.00;3.00;;;;;25.06;67.65;100030.69;146638;604;45020;-66
2023/06/17 10:15:34;;;;;;;;;3.33;3.33;;;;;22.71;66.97;99597.00;146629;570;46012;-65
2023/06/17 10:18:54;;;;;;;;;3.33;3.33;;;;;24.26;66.59;99829.84;146624;651;46010;-65
2023/06/17 10:21:57;;;;;;;;;4.00;3.00;;;;;25.64;66.54;100028.66;146617;605;46016;-66
2023/06/17 10:24:56;;;;;;;;;4.00;4.00;;;;;25.86;64.66;100027.31;146620;585;46021;-66
2023/06/17 10:27:49;;;;;;;;;4.00;3.33;;;;;26.02;64.81;100030.50;146617;586;47012;-66
2023/06/17 10:30:57;;;;;;;;;6.00;5.00;;;;;26.18;63.01;100029.22;146621;578;46038;-66
2023/06/17 10:33:52;;;;;;;;;4.33;4.00;;;;;26.25;63.49;100027.28;146620;657;47012;-66
2023/06/17 10:37:01;;;;;;;;;5.67;5.67;;;;;26.33;62.76;100027.13;146619;604;46020;-66
2023/06/17 10:40:38;;;;;;;;;5.67;4.00;;;;;25.35;63.47;99837.28;146619;661;46016;-66
2023/06/17 10:43:48;;;;;;;;;4.00;4.00;;;;;26.41;61.75;100014.50;146622;565;46022;-66
2023/06/17 10:47:11;;;;;;;;;6.00;4.00;;;;;25.18;63.80;99818.25;146619;661;46013;-66
2023/06/17 10:50:29;;;;;;;;;3.33;3.00;;;;;26.10;60.97;100014.38;146623;619;47010;-66
2023/06/17 10:53:35;;;;;;;;;4.67;4.67;;;;;25.85;63.63;100014.94;146615;591;46016;-66
2023/06/17 10:57:04;;;;;;;;;4.00;4.00;;;;;23.61;64.49;99613.94;146621;571;46020;-66
2023/06/17 11:00:06;;;;;;;;;3.67;3.00;;;;;26.16;62.40;100015.09;146619;592;46016;-66
2023/06/17 11:03:25;;;;;;;;;;;;;;;;;;;;;
2023/06/17 11:06:36;;;;;;;;;2.67;2.67;;;;;26.29;61.26;100004.16;146619;584;46012;-66
2023/06/17 11:09:36;;;;;;;;;1.00;1.00;;;;;26.32;59.15;100007.63;146622;612;46021;-66
2023/06/17 11:12:34;;;;;;;;;3.00;3.00;;;;;26.34;58.75;100011.13;146618;618;46016;-65
2023/06/17 11:15:34;;;;;;;;;3.33;3.33;;;;;26.20;61.64;100014.13;146621;577;46021;-68
2023/06/17 11:18:32;;;;;;;;;3.33;3.00;;;;;26.23;61.23;100008.75;146620;594;46016;-65
2023/06/17 11:21:27;;;;;;;;;3.67;3.67;;;;;26.42;61.24;100010.94;146619;619;46020;-63
2023/06/17 11:24:30;;;;;;;;;4.00;4.00;;;;;26.37;58.72;100019.03;146618;573;46016;-65
2023/06/17 11:27:40;;;;;;;;;5.67;4.33;;;;;26.08;60.80;100019.75;146623;587;46010;-65
2023/06/17 11:30:43;;;;;;;;;4.33;4.00;;;;;25.92;61.91;100024.53;146620;564;46017;-67
2023/06/17 11:34:01;;;;;;;;;4.67;4.67;;;;;25.83;62.73;100026.53;146622;580;46033;-65
2023/06/17 11:36:57;;;;;;;;;3.00;3.00;;;;;25.76;62.75;100023.06;146616;595;46017;-66
2023/06/17 11:40:03;;;;;;;;;3.00;3.00;;;;;25.72;63.18;100027.59;146621;569;46020;-66
2023/06/17 11:43:06;;;;;;;;;4.67;4.33;;;;;25.52;63.96;100024.50;146620;613;45913;-65
2023/06/17 11:46:08;;;;;;;;;4.00;4.00;;;;;25.30;64.59;100018.78;146623;597;46010;-66
2023/06/17 11:49:03;;;;;;;;;7.00;5.67;;;;;25.14;64.39;100018.22;146618;563;46016;-65
2023/06/17 11:52:15;;;;;;;;;5.00;5.00;;;;;25.09;65.75;100028.00;146622;579;46021;-66
2023/06/17 11:55:19;;;;;;;;;6.33;5.33;;;;;25.17;65.54;100023.44;146620;625;46027;-65
2023/06/17 11:58:31;;;;;;;;;;;;;;;;;;;;;
2023/06/17 12:01:35;;;;;;;;;6.00;4.67;;;;;25.62;64.49;100019.87;146617;564;46016;-65
2023/06/17 12:04:31;;;;;;;;;4.67;4.67;;;;;25.75;63.32;100021.34;146621;648;46020;-66
2023/06/17 12:07:40;;;;;;;;;4.00;4.00;;;;;25.83;63.50;100030.06;146613;597;48017;-64
2023/06/17 12:11:12;;;;;;;;;5.33;3.67;;;;;25.88;62.91;100041.44;146623;570;46010;-65
2023/06/17 12:14:16;;;;;;;;;6.33;5.67;;;;;25.84;62.82;100045.06;146620;565;46012;-65
2023/06/17 12:17:24;;;;;;;;;6.33;4.00;;;;;25.82;63.71;100048.66;146622;581;46010;-65
2023/06/17 12:20:32;;;;;;;;;5.00;5.00;;;;;23.59;62.80;99647.50;146619;608;46016;-65
2023/06/17 12:23:30;;;;;;;;;3.67;3.67;;;;;26.10;62.75;100055.09;146623;570;46014;-65
2023/06/17 12:26:27;;;;;;;;;4.67;4.00;;;;;26.18;60.41;100060.25;146618;593;46016;-65
2023/06/17 12:29:32;;;;;;;;;4.67;4.00;;;;;26.07;61.52;100060.47;146619;614;47014;-65
2023/06/17 12:32:40;;;;;;;;;3.00;3.00;;;;;25.96;60.83;100051.91;146613;581;46016;-65
2023/06/17 12:35:43;;;;;;;;;2.67;2.67;;;;;25.89;60.87;100055.56;146624;642;46010;-65
2023/06/17 12:38:51;;;;;;;;;3.00;3.00;;;;;25.78;62.54;100055.78;146619;563;46012;-64
2023/06/17 12:41:59;;;;;;;;;3.00;3.00;;;;;25.73;62.64;100062.97;146618;569;46020;-64
2023/06/17 12:45:03;;;;;;;;;5.00;4.00;;;;;25.70;62.66;100061.28;146616;683;46914;-65
2023/06/17 12:48:12;;;;;;;;;4.67;4.00;;;;;25.69;62.35;100069.25;146624;572;46010;-65
2023/06/17 12:51:09;;;;;;;;;1.67;1.00;;;;;25.63;62.79;100070.25;146620;616;46017;-64
2023/06/17 12:54:01;;;;;;;;;2.00;2.00;;;;;25.52;62.90;100062.53;146622;582;46045;-66
2023/06/17 12:57:19;;;;;;;;;3.00;3.00;;;;;25.32;62.95;100065.56;146619;601;47012;-66
2023/06/17 13:00:31;;;;;;;;;3.33;2.33;;;;;25.13;62.96;100072.16;146622;620;47010;-65
2023/06/17 13:03:29;;;;;;;;;4.33;4.00;;;;;24.99;64.66;100068.84;146619;613;47012;-65
2023/06/17 13:06:44;;;;;;;;;3.67;3.67;;;;;24.83;64.13;100069.12;146620;654;46030;-66
2023/06/17 13:09:54;;;;;;;;;;;;;;;;;;;;;
2023/06/17 13:12:54;;;;;;;;;2.00;2.00;;;;;24.51;64.50;100087.34;146624;596;46011;-65
2023/06/17 13:16:22;;;;;;;;;1.33;1.33;;;;;24.36;64.26;100078.72;146619;656;46016;-65
2023/06/17 13:19:19;;;;;;;;;3.00;3.00;;;;;24.26;65.56;100085.03;146638;589;45021;-65
2023/06/17 13:22:25;;;;;;;;;1.67;1.67;;;;;24.14;66.49;100079.91;146636;566;45012;-66
2023/06/17 13:25:21;;;;;;;;;2.33;2.00;;;;;24.04;66.83;100080.94;146636;674;45021;-64
2023/06/17 13:28:21;;;;;;;;;3.00;3.00;;;;;23.93;67.28;100092.56;146633;599;45017;-65
2023/06/17 13:31:38;;;;;;;;;3.00;2.67;;;;;23.90;67.20;100084.69;146636;582;45025;-65
2023/06/17 13:34:55;;;;;;;;;3.67;2.67;;;;;23.97;65.54;100091.63;146636;700;45016;-65
2023/06/17 13:38:02;;;;;;;;;2.33;2.33;;;;;21.56;65.14;99648.72;146637;647;46020;-65
2023/06/17 13:41:09;;;;;;;;;3.67;3.00;;;;;24.23;63.81;100093.03;146637;601;45016;-65
2023/06/17 13:44:12;;;;;;;;;1.67;1.67;;;;;24.37;64.33;100098.13;146636;589;45014;-65
2023/06/17 13:47:18;;;;;;;;;2.33;2.33;;;;;24.47;64.80;100090.94;146635;596;45016;-65
2023/06/17 13:50:16;;;;;;;;;4.67;3.67;;;;;24.55;64.23;100097.87;146630;605;46020;-65
2023/06/17 13:53:14;;;;;;;;;3.00;3.00;;;;;24.59;64.14;100098.69;146635;597;45012;-64
2023/06/17 13:56:27;;;;;;;;;3.00;3.00;;;;;24.62;61.56;100098.66;146636;656;45010;-66
2023/06/17 13:59:23;;;;;;;;;2.67;2.00;;;;;24.68;61.14;100087.09;146635;582;45017;-65
2023/06/17 14:02:19;;;;;;;;;2.67;2.33;;;;;24.80;62.78;100084.22;146637;566;46010;-65
2023/06/17 14:05:47;;;;;;;;;2.00;2.00;;;;;24.97;60.45;100091.87;146635;643;45017;-64
2023/06/17 14:08:42;;;;;;;;;3.00;2.67;;;;;25.06;61.02;100095.22;146638;578;45020;-65
2023/06/17 14:11:37;;;;;;;;;4.00;4.00;;;;;25.12;56.81;100097.81;146634;624;46916;-65
2023/06/17 14:14:32;;;;;;;;;2.00;2.00;;;;;25.13;57.00;100090.72;146639;591;45020;-66
2023/06/17 14:17:29;;;;;;;;;3.00;3.00;;;;;25.12;56.19;100086.28;146627;627;45035;-65
2023/06/17 14:20:41;;;;;;;;;3.67;3.67;;;;;25.10;56.08;100088.09;146617;639;47011;-65
2023/06/17 14:23:50;;;;;;;;;2.33;1.33;;;;;25.11;56.72;100088.06;146617;563;46016;-65
2023/06/17 14:27:13;;;;;;;;;2.00;2.00;;;;;25.10;56.36;100086.31;146621;594;46021;-66
2023/06/17 14:30:19;;;;;;;;;2.67;2.67;;;;;25.10;56.83;100091.59;146618;580;46016;-65
2023/06/17 14:33:14;;;;;;;;;3.00;1.33;;;;;25.14;56.05;100087.19;146616;595;48010;-65
2023/06/17 14:36:12;;;;;;;;;4.00;3.00;;;;;25.08;54.55;100085.47;146617;574;46017;-65
2023/06/17 14:39:12;;;;;;;;;3.33;3.33;;;;;25.07;55.29;100085.50;146621;586;46020;-65
2023/06/17 14:42:16;;;;;;;;;3.33;3.33;;;;;25.03;54.59;100075.84;146617;715;46037;-64
2023/06/17 14:45:29;;;;;;;;;3.00;3.00;;;;;25.05;56.69;100082.00;146623;586;46010;-66
2023/06/17 14:48:30;;;;;;;;;4.00;2.33;;;;;25.07;55.89;100089.00;146617;597;46016;-65
2023/06/17 14:51:41;;;;;;;;;4.67;4.00;;;;;25.11;57.71;100092.50;146621;595;46020;-65